sensor_id;sensor_type;location;lat;lon;timestamp;temperature;humidity
780;DHT22;373;49.342;8.146;2022-07-18T00:01:21;20.50;47.30
780;DHT22;373;49.342;8.146;2022-07-18T00:03:48;20.50;47.50
780;DHT22;373;49.342;8.146;2022-07-18T00:06:15;20.50;47.40
780;DHT22;373;49.342;8.146;2022-07-18T00:08:42;20.40;47.40
780;DHT22;373;49.342;8.146;2022-07-18T00:11:09;20.30;48.20
780;DHT22;373;49.342;8.146;2022-07-18T00:13:36;20.20;47.80
780;DHT22;373;49.342;8.146;2022-07-18T00:16:05;20.30;48.00
780;DHT22;373;49.342;8.146;2022-07-18T00:18:33;20.20;47.80
780;DHT22;373;49.342;8.146;2022-07-18T00:21:00;20.20;47.80
780;DHT22;373;49.342;8.146;2022-07-18T00:23:27;20.10;48.00
780;DHT22;373;49.342;8.146;2022-07-18T00:25:54;20.10;48.40
780;DHT22;373;49.342;8.146;2022-07-18T00:28:21;20.00;48.80
780;DHT22;373;49.342;8.146;2022-07-18T00:30:49;20.10;48.80
780;DHT22;373;49.342;8.146;2022-07-18T00:33:17;20.00;48.90
780;DHT22;373;49.342;8.146;2022-07-18T00:35:44;20.00;48.70
780;DHT22;373;49.342;8.146;2022-07-18T00:38:11;20.00;48.90
780;DHT22;373;49.342;8.146;2022-07-18T00:40:38;19.90;49.10
780;DHT22;373;49.342;8.146;2022-07-18T00:43:05;19.80;49.30
780;DHT22;373;49.342;8.146;2022-07-18T00:45:33;19.80;49.40
780;DHT22;373;49.342;8.146;2022-07-18T00:48:05;19.70;49.30
780;DHT22;373;49.342;8.146;2022-07-18T00:50:34;19.70;49.40
780;DHT22;373;49.342;8.146;2022-07-18T00:53:01;19.80;49.60
780;DHT22;373;49.342;8.146;2022-07-18T00:55:28;19.80;49.50
780;DHT22;373;49.342;8.146;2022-07-18T00:57:55;19.80;49.60
780;DHT22;373;49.342;8.146;2022-07-18T01:00:23;19.80;49.70
780;DHT22;373;49.342;8.146;2022-07-18T01:03:08;19.80;49.60
780;DHT22;373;49.342;8.146;2022-07-18T01:05:37;19.80;49.60
780;DHT22;373;49.342;8.146;2022-07-18T01:08:04;19.50;49.90
780;DHT22;373;49.342;8.146;2022-07-18T01:10:31;19.50;50.20
780;DHT22;373;49.342;8.146;2022-07-18T01:12:58;19.50;50.20
780;DHT22;373;49.342;8.146;2022-07-18T01:15:26;19.50;50.30
780;DHT22;373;49.342;8.146;2022-07-18T01:17:53;19.40;50.40
780;DHT22;373;49.342;8.146;2022-07-18T01:20:20;19.30;50.70
780;DHT22;373;49.342;8.146;2022-07-18T01:22:49;19.30;50.80
780;DHT22;373;49.342;8.146;2022-07-18T01:25:17;19.20;50.90
780;DHT22;373;49.342;8.146;2022-07-18T01:27:44;19.20;51.20
780;DHT22;373;49.342;8.146;2022-07-18T01:30:11;19.10;51.20
780;DHT22;373;49.342;8.146;2022-07-18T01:32:38;19.10;51.10
780;DHT22;373;49.342;8.146;2022-07-18T01:35:06;19.20;51.20
780;DHT22;373;49.342;8.146;2022-07-18T01:37:33;19.30;51.00
780;DHT22;373;49.342;8.146;2022-07-18T01:40:07;19.30;50.70
780;DHT22;373;49.342;8.146;2022-07-18T01:42:34;19.30;51.00
780;DHT22;373;49.342;8.146;2022-07-18T01:45:02;19.30;51.10
780;DHT22;373;49.342;8.146;2022-07-18T01:47:29;19.30;51.00
780;DHT22;373;49.342;8.146;2022-07-18T01:49:56;19.40;50.90
780;DHT22;373;49.342;8.146;2022-07-18T01:52:23;19.50;50.90
780;DHT22;373;49.342;8.146;2022-07-18T01:54:50;19.40;51.00
780;DHT22;373;49.342;8.146;2022-07-18T01:57:18;19.30;51.10
780;DHT22;373;49.342;8.146;2022-07-18T01:59:45;19.30;50.90
780;DHT22;373;49.342;8.146;2022-07-18T02:02:12;19.40;51.20
780;DHT22;373;49.342;8.146;2022-07-18T02:04:40;19.40;51.10
780;DHT22;373;49.342;8.146;2022-07-18T02:07:24;19.40;50.90
780;DHT22;373;49.342;8.146;2022-07-18T02:09:51;19.40;51.30
780;DHT22;373;49.342;8.146;2022-07-18T02:12:19;19.30;51.30
780;DHT22;373;49.342;8.146;2022-07-18T02:14:47;19.30;51.50
780;DHT22;373;49.342;8.146;2022-07-18T02:17:14;19.40;51.30
780;DHT22;373;49.342;8.146;2022-07-18T02:19:41;19.30;51.60
780;DHT22;373;49.342;8.146;2022-07-18T02:22:08;19.30;51.70
780;DHT22;373;49.342;8.146;2022-07-18T02:24:35;19.20;51.80
780;DHT22;373;49.342;8.146;2022-07-18T02:27:02;19.10;51.90
780;DHT22;373;49.342;8.146;2022-07-18T02:29:31;19.10;52.10
780;DHT22;373;49.342;8.146;2022-07-18T02:31:58;19.10;52.20
780;DHT22;373;49.342;8.146;2022-07-18T02:34:25;19.00;52.30
780;DHT22;373;49.342;8.146;2022-07-18T02:36:53;19.00;52.50
780;DHT22;373;49.342;8.146;2022-07-18T02:39:20;18.90;52.80
780;DHT22;373;49.342;8.146;2022-07-18T02:41:47;18.90;53.00
780;DHT22;373;49.342;8.146;2022-07-18T02:44:14;18.90;52.80
780;DHT22;373;49.342;8.146;2022-07-18T02:46:43;18.90;52.80
780;DHT22;373;49.342;8.146;2022-07-18T02:49:10;19.10;52.50
780;DHT22;373;49.342;8.146;2022-07-18T02:51:53;19.00;52.60
780;DHT22;373;49.342;8.146;2022-07-18T02:54:20;19.10;52.70
780;DHT22;373;49.342;8.146;2022-07-18T02:56:48;19.00;52.80
780;DHT22;373;49.342;8.146;2022-07-18T02:59:15;19.00;52.70
780;DHT22;373;49.342;8.146;2022-07-18T03:01:43;19.00;52.60
780;DHT22;373;49.342;8.146;2022-07-18T03:04:10;19.00;52.70
780;DHT22;373;49.342;8.146;2022-07-18T03:06:38;19.10;52.60
780;DHT22;373;49.342;8.146;2022-07-18T03:09:05;19.10;52.60
780;DHT22;373;49.342;8.146;2022-07-18T03:11:32;19.10;52.80
780;DHT22;373;49.342;8.146;2022-07-18T03:13:59;18.90;52.90
780;DHT22;373;49.342;8.146;2022-07-18T03:16:26;18.90;53.50
780;DHT22;373;49.342;8.146;2022-07-18T03:18:55;18.80;53.60
780;DHT22;373;49.342;8.146;2022-07-18T03:21:22;18.70;53.90
780;DHT22;373;49.342;8.146;2022-07-18T03:23:49;18.70;54.00
780;DHT22;373;49.342;8.146;2022-07-18T03:26:16;18.40;54.60
780;DHT22;373;49.342;8.146;2022-07-18T03:28:44;18.40;55.30
780;DHT22;373;49.342;8.146;2022-07-18T03:31:11;18.30;55.00
780;DHT22;373;49.342;8.146;2022-07-18T03:33:38;18.30;55.20
780;DHT22;373;49.342;8.146;2022-07-18T03:36:06;18.40;55.00
780;DHT22;373;49.342;8.146;2022-07-18T03:38:34;18.40;55.40
780;DHT22;373;49.342;8.146;2022-07-18T03:41:01;18.50;54.90
780;DHT22;373;49.342;8.146;2022-07-18T03:43:29;18.70;54.70
780;DHT22;373;49.342;8.146;2022-07-18T03:45:56;18.70;54.90
780;DHT22;373;49.342;8.146;2022-07-18T03:48:23;18.70;54.70
780;DHT22;373;49.342;8.146;2022-07-18T03:50:50;18.90;55.20
780;DHT22;373;49.342;8.146;2022-07-18T03:53:19;19.10;54.20
780;DHT22;373;49.342;8.146;2022-07-18T03:55:46;19.10;54.20
780;DHT22;373;49.342;8.146;2022-07-18T03:58:13;19.20;54.40
780;DHT22;373;49.342;8.146;2022-07-18T04:00:40;19.10;53.90
780;DHT22;373;49.342;8.146;2022-07-18T04:03:07;19.00;54.20
780;DHT22;373;49.342;8.146;2022-07-18T04:05:35;18.90;55.10
780;DHT22;373;49.342;8.146;2022-07-18T04:08:02;18.90;55.00
780;DHT22;373;49.342;8.146;2022-07-18T04:10:30;19.00;54.60
780;DHT22;373;49.342;8.146;2022-07-18T04:12:58;19.10;54.60
780;DHT22;373;49.342;8.146;2022-07-18T04:15:26;19.00;54.80
780;DHT22;373;49.342;8.146;2022-07-18T04:17:53;19.20;54.90
780;DHT22;373;49.342;8.146;2022-07-18T04:20:21;19.20;54.90
780;DHT22;373;49.342;8.146;2022-07-18T04:22:50;19.20;55.00
780;DHT22;373;49.342;8.146;2022-07-18T04:25:18;19.10;55.00
780;DHT22;373;49.342;8.146;2022-07-18T04:27:47;19.10;55.50
780;DHT22;373;49.342;8.146;2022-07-18T04:30:17;19.00;55.40
780;DHT22;373;49.342;8.146;2022-07-18T04:32:44;19.20;55.40
780;DHT22;373;49.342;8.146;2022-07-18T04:35:12;19.40;55.10
780;DHT22;373;49.342;8.146;2022-07-18T04:37:39;19.40;55.20
780;DHT22;373;49.342;8.146;2022-07-18T04:40:08;19.30;55.60
780;DHT22;373;49.342;8.146;2022-07-18T04:42:36;19.20;55.80
780;DHT22;373;49.342;8.146;2022-07-18T04:45:05;19.10;56.10
780;DHT22;373;49.342;8.146;2022-07-18T04:47:34;19.40;55.90
780;DHT22;373;49.342;8.146;2022-07-18T04:50:01;19.80;55.40
780;DHT22;373;49.342;8.146;2022-07-18T04:52:36;20.10;54.80
780;DHT22;373;49.342;8.146;2022-07-18T04:55:04;20.40;54.50
780;DHT22;373;49.342;8.146;2022-07-18T04:57:31;20.40;54.10
780;DHT22;373;49.342;8.146;2022-07-18T04:59:58;20.80;53.70
780;DHT22;373;49.342;8.146;2022-07-18T05:02:27;21.00;53.10
780;DHT22;373;49.342;8.146;2022-07-18T05:04:54;21.20;53.50
780;DHT22;373;49.342;8.146;2022-07-18T05:07:21;21.20;53.20
780;DHT22;373;49.342;8.146;2022-07-18T05:09:49;21.30;54.10
780;DHT22;373;49.342;8.146;2022-07-18T05:12:16;21.50;55.00
780;DHT22;373;49.342;8.146;2022-07-18T05:14:44;21.70;55.30
780;DHT22;373;49.342;8.146;2022-07-18T05:17:11;22.20;55.00
780;DHT22;373;49.342;8.146;2022-07-18T05:19:40;22.60;54.80
780;DHT22;373;49.342;8.146;2022-07-18T05:22:07;23.20;52.20
780;DHT22;373;49.342;8.146;2022-07-18T05:24:34;23.60;54.40
780;DHT22;373;49.342;8.146;2022-07-18T05:27:01;23.60;54.40
780;DHT22;373;49.342;8.146;2022-07-18T05:29:28;23.20;55.30
780;DHT22;373;49.342;8.146;2022-07-18T05:31:56;23.20;55.60
780;DHT22;373;49.342;8.146;2022-07-18T05:34:23;23.30;55.30
780;DHT22;373;49.342;8.146;2022-07-18T05:36:52;23.50;55.70
780;DHT22;373;49.342;8.146;2022-07-18T05:39:21;23.70;53.30
780;DHT22;373;49.342;8.146;2022-07-18T05:41:48;23.80;55.80
780;DHT22;373;49.342;8.146;2022-07-18T05:44:15;23.40;56.70
780;DHT22;373;49.342;8.146;2022-07-18T05:46:42;23.70;56.60
780;DHT22;373;49.342;8.146;2022-07-18T05:49:09;23.50;57.10
780;DHT22;373;49.342;8.146;2022-07-18T05:51:36;23.40;56.90
780;DHT22;373;49.342;8.146;2022-07-18T05:54:06;23.20;56.70
780;DHT22;373;49.342;8.146;2022-07-18T05:56:33;23.60;56.80
780;DHT22;373;49.342;8.146;2022-07-18T05:59:03;23.70;55.40
780;DHT22;373;49.342;8.146;2022-07-18T06:01:31;24.00;54.40
780;DHT22;373;49.342;8.146;2022-07-18T06:03:58;24.60;52.80
780;DHT22;373;49.342;8.146;2022-07-18T06:06:25;25.10;53.50
780;DHT22;373;49.342;8.146;2022-07-18T06:08:52;25.40;51.90
780;DHT22;373;49.342;8.146;2022-07-18T06:11:29;25.70;52.40
780;DHT22;373;49.342;8.146;2022-07-18T06:14:08;25.80;51.50
780;DHT22;373;49.342;8.146;2022-07-18T06:16:36;26.00;51.10
780;DHT22;373;49.342;8.146;2022-07-18T06:19:15;25.90;51.00
780;DHT22;373;49.342;8.146;2022-07-18T06:21:58;25.60;51.50
780;DHT22;373;49.342;8.146;2022-07-18T06:24:32;25.70;52.10
780;DHT22;373;49.342;8.146;2022-07-18T06:27:11;25.80;51.30
780;DHT22;373;49.342;8.146;2022-07-18T06:34:15;26.40;48.00
780;DHT22;373;49.342;8.146;2022-07-18T06:36:43;26.70;47.40
780;DHT22;373;49.342;8.146;2022-07-18T06:39:10;26.60;45.70
780;DHT22;373;49.342;8.146;2022-07-18T06:44:26;27.50;44.30
780;DHT22;373;49.342;8.146;2022-07-18T06:46:53;27.80;45.10
780;DHT22;373;49.342;8.146;2022-07-18T06:49:20;27.80;43.70
780;DHT22;373;49.342;8.146;2022-07-18T06:51:48;28.10;43.00
780;DHT22;373;49.342;8.146;2022-07-18T06:54:15;27.80;42.60
780;DHT22;373;49.342;8.146;2022-07-18T06:56:42;27.70;44.50
780;DHT22;373;49.342;8.146;2022-07-18T06:59:09;27.50;43.30
780;DHT22;373;49.342;8.146;2022-07-18T07:01:37;27.60;43.70
780;DHT22;373;49.342;8.146;2022-07-18T07:04:04;28.10;44.10
780;DHT22;373;49.342;8.146;2022-07-18T07:06:31;28.60;43.50
780;DHT22;373;49.342;8.146;2022-07-18T07:08:58;28.60;43.40
780;DHT22;373;49.342;8.146;2022-07-18T07:11:25;28.70;43.60
780;DHT22;373;49.342;8.146;2022-07-18T07:13:52;29.10;43.40
780;DHT22;373;49.342;8.146;2022-07-18T07:16:19;28.70;43.80
780;DHT22;373;49.342;8.146;2022-07-18T07:18:48;28.40;44.40
780;DHT22;373;49.342;8.146;2022-07-18T07:21:15;28.60;43.20
780;DHT22;373;49.342;8.146;2022-07-18T07:23:42;28.10;42.40
780;DHT22;373;49.342;8.146;2022-07-18T07:26:09;28.60;41.70
780;DHT22;373;49.342;8.146;2022-07-18T07:28:36;29.00;41.70
780;DHT22;373;49.342;8.146;2022-07-18T07:31:03;29.50;40.00
780;DHT22;373;49.342;8.146;2022-07-18T07:33:31;29.50;38.90
780;DHT22;373;49.342;8.146;2022-07-18T07:35:59;29.50;40.30
780;DHT22;373;49.342;8.146;2022-07-18T07:38:27;29.50;37.40
780;DHT22;373;49.342;8.146;2022-07-18T07:40:55;29.80;36.90
780;DHT22;373;49.342;8.146;2022-07-18T07:43:23;29.90;37.40
780;DHT22;373;49.342;8.146;2022-07-18T07:45:50;29.40;36.90
780;DHT22;373;49.342;8.146;2022-07-18T07:48:18;29.50;37.80
780;DHT22;373;49.342;8.146;2022-07-18T07:50:45;29.40;38.90
780;DHT22;373;49.342;8.146;2022-07-18T07:53:14;28.90;38.10
780;DHT22;373;49.342;8.146;2022-07-18T07:55:41;29.10;38.50
780;DHT22;373;49.342;8.146;2022-07-18T07:58:08;29.30;38.70
780;DHT22;373;49.342;8.146;2022-07-18T08:00:36;29.20;38.20
780;DHT22;373;49.342;8.146;2022-07-18T08:03:05;28.90;38.50
780;DHT22;373;49.342;8.146;2022-07-18T08:05:34;29.00;38.50
780;DHT22;373;49.342;8.146;2022-07-18T08:08:03;29.10;38.00
780;DHT22;373;49.342;8.146;2022-07-18T08:10:32;29.00;38.40
780;DHT22;373;49.342;8.146;2022-07-18T08:13:00;29.00;38.50
780;DHT22;373;49.342;8.146;2022-07-18T08:15:27;29.00;38.50
780;DHT22;373;49.342;8.146;2022-07-18T08:17:55;29.60;39.30
780;DHT22;373;49.342;8.146;2022-07-18T08:20:22;30.30;38.70
780;DHT22;373;49.342;8.146;2022-07-18T08:22:54;30.40;38.80
780;DHT22;373;49.342;8.146;2022-07-18T08:25:22;29.80;37.90
780;DHT22;373;49.342;8.146;2022-07-18T08:27:51;29.60;38.30
780;DHT22;373;49.342;8.146;2022-07-18T08:30:18;30.20;39.80
780;DHT22;373;49.342;8.146;2022-07-18T08:32:45;30.60;37.80
780;DHT22;373;49.342;8.146;2022-07-18T08:35:12;30.60;38.60
780;DHT22;373;49.342;8.146;2022-07-18T08:37:40;30.70;38.20
780;DHT22;373;49.342;8.146;2022-07-18T08:40:08;31.00;37.50
780;DHT22;373;49.342;8.146;2022-07-18T08:42:35;31.60;37.60
780;DHT22;373;49.342;8.146;2022-07-18T08:45:04;32.00;38.10
780;DHT22;373;49.342;8.146;2022-07-18T08:47:32;31.90;37.90
780;DHT22;373;49.342;8.146;2022-07-18T08:50:00;31.80;37.30
780;DHT22;373;49.342;8.146;2022-07-18T08:52:29;31.60;36.60
780;DHT22;373;49.342;8.146;2022-07-18T08:54:56;31.90;36.50
780;DHT22;373;49.342;8.146;2022-07-18T08:57:23;31.60;36.70
780;DHT22;373;49.342;8.146;2022-07-18T08:59:50;32.00;36.10
780;DHT22;373;49.342;8.146;2022-07-18T09:02:24;31.90;36.70
780;DHT22;373;49.342;8.146;2022-07-18T09:04:51;31.60;36.70
780;DHT22;373;49.342;8.146;2022-07-18T09:07:26;32.30;35.70
780;DHT22;373;49.342;8.146;2022-07-18T09:09:56;32.20;34.60
780;DHT22;373;49.342;8.146;2022-07-18T09:12:25;31.90;35.80
780;DHT22;373;49.342;8.146;2022-07-18T09:14:52;32.00;35.90
780;DHT22;373;49.342;8.146;2022-07-18T09:17:23;32.50;36.10
780;DHT22;373;49.342;8.146;2022-07-18T09:19:58;31.60;35.10
780;DHT22;373;49.342;8.146;2022-07-18T09:22:27;32.20;36.30
780;DHT22;373;49.342;8.146;2022-07-18T09:24:57;32.80;35.60
780;DHT22;373;49.342;8.146;2022-07-18T09:27:27;33.00;34.50
780;DHT22;373;49.342;8.146;2022-07-18T09:30:13;33.00;33.50
780;DHT22;373;49.342;8.146;2022-07-18T09:32:45;32.90;33.70
780;DHT22;373;49.342;8.146;2022-07-18T09:35:14;33.20;34.60
780;DHT22;373;49.342;8.146;2022-07-18T09:37:53;33.20;32.80
780;DHT22;373;49.342;8.146;2022-07-18T09:40:22;33.10;32.30
780;DHT22;373;49.342;8.146;2022-07-18T09:42:51;33.30;32.60
780;DHT22;373;49.342;8.146;2022-07-18T09:45:22;32.90;32.90
780;DHT22;373;49.342;8.146;2022-07-18T09:47:53;32.60;33.10
780;DHT22;373;49.342;8.146;2022-07-18T09:50:23;32.60;33.30
780;DHT22;373;49.342;8.146;2022-07-18T09:55:51;33.80;33.90
780;DHT22;373;49.342;8.146;2022-07-18T09:58:20;33.80;32.10
780;DHT22;373;49.342;8.146;2022-07-18T10:00:48;33.10;32.50
780;DHT22;373;49.342;8.146;2022-07-18T10:03:17;33.20;33.70
780;DHT22;373;49.342;8.146;2022-07-18T10:05:46;33.70;32.60
780;DHT22;373;49.342;8.146;2022-07-18T10:08:15;33.60;33.70
780;DHT22;373;49.342;8.146;2022-07-18T10:10:43;32.90;33.50
780;DHT22;373;49.342;8.146;2022-07-18T10:13:12;32.80;33.70
780;DHT22;373;49.342;8.146;2022-07-18T10:15:40;32.80;33.90
780;DHT22;373;49.342;8.146;2022-07-18T10:18:09;33.10;33.40
780;DHT22;373;49.342;8.146;2022-07-18T10:20:42;33.10;33.30
780;DHT22;373;49.342;8.146;2022-07-18T10:23:15;32.90;33.40
780;DHT22;373;49.342;8.146;2022-07-18T10:25:43;33.50;35.30
780;DHT22;373;49.342;8.146;2022-07-18T10:28:12;34.30;33.10
780;DHT22;373;49.342;8.146;2022-07-18T10:30:43;34.60;33.50
780;DHT22;373;49.342;8.146;2022-07-18T10:33:39;35.00;33.60
780;DHT22;373;49.342;8.146;2022-07-18T10:36:10;35.30;32.20
780;DHT22;373;49.342;8.146;2022-07-18T10:38:40;35.40;32.10
780;DHT22;373;49.342;8.146;2022-07-18T10:41:26;34.80;32.10
780;DHT22;373;49.342;8.146;2022-07-18T10:43:53;34.40;32.80
780;DHT22;373;49.342;8.146;2022-07-18T10:46:20;34.00;32.50
780;DHT22;373;49.342;8.146;2022-07-18T10:48:56;33.60;32.00
780;DHT22;373;49.342;8.146;2022-07-18T10:51:33;33.70;32.40
780;DHT22;373;49.342;8.146;2022-07-18T10:54:18;33.90;32.40
780;DHT22;373;49.342;8.146;2022-07-18T10:57:08;33.90;32.20
780;DHT22;373;49.342;8.146;2022-07-18T10:59:36;34.40;33.50
780;DHT22;373;49.342;8.146;2022-07-18T11:02:06;34.60;31.50
780;DHT22;373;49.342;8.146;2022-07-18T11:04:36;34.50;31.70
780;DHT22;373;49.342;8.146;2022-07-18T11:07:08;34.40;31.10
780;DHT22;373;49.342;8.146;2022-07-18T11:09:37;32.90;31.60
780;DHT22;373;49.342;8.146;2022-07-18T11:12:28;32.70;32.60
780;DHT22;373;49.342;8.146;2022-07-18T11:15:00;31.90;32.80
780;DHT22;373;49.342;8.146;2022-07-18T11:18:01;32.10;33.00
780;DHT22;373;49.342;8.146;2022-07-18T11:20:40;32.20;33.40
780;DHT22;373;49.342;8.146;2022-07-18T11:23:21;32.40;32.70
780;DHT22;373;49.342;8.146;2022-07-18T11:25:50;32.60;33.10
780;DHT22;373;49.342;8.146;2022-07-18T11:28:17;32.90;32.80
780;DHT22;373;49.342;8.146;2022-07-18T11:30:45;33.10;32.10
780;DHT22;373;49.342;8.146;2022-07-18T11:33:23;33.10;32.20
780;DHT22;373;49.342;8.146;2022-07-18T11:35:51;32.70;32.60
780;DHT22;373;49.342;8.146;2022-07-18T11:38:20;33.00;32.50
780;DHT22;373;49.342;8.146;2022-07-18T11:40:50;33.00;32.10
780;DHT22;373;49.342;8.146;2022-07-18T11:43:21;32.60;32.00
780;DHT22;373;49.342;8.146;2022-07-18T11:45:59;33.00;32.40
780;DHT22;373;49.342;8.146;2022-07-18T11:48:27;32.80;31.90
780;DHT22;373;49.342;8.146;2022-07-18T11:50:55;32.80;32.40
780;DHT22;373;49.342;8.146;2022-07-18T11:53:23;32.60;31.90
780;DHT22;373;49.342;8.146;2022-07-18T11:55:52;32.40;32.10
780;DHT22;373;49.342;8.146;2022-07-18T11:58:19;32.70;32.10
780;DHT22;373;49.342;8.146;2022-07-18T12:00:48;33.00;31.60
780;DHT22;373;49.342;8.146;2022-07-18T12:03:17;33.30;31.30
780;DHT22;373;49.342;8.146;2022-07-18T12:05:47;33.60;31.80
780;DHT22;373;49.342;8.146;2022-07-18T12:08:30;33.30;31.80
780;DHT22;373;49.342;8.146;2022-07-18T12:11:09;33.10;32.20
780;DHT22;373;49.342;8.146;2022-07-18T12:13:48;33.20;31.70
780;DHT22;373;49.342;8.146;2022-07-18T12:16:27;33.60;31.20
780;DHT22;373;49.342;8.146;2022-07-18T12:18:55;33.70;31.10
780;DHT22;373;49.342;8.146;2022-07-18T12:21:23;33.50;29.90
780;DHT22;373;49.342;8.146;2022-07-18T12:23:51;33.40;29.90
780;DHT22;373;49.342;8.146;2022-07-18T12:26:29;33.20;30.70
780;DHT22;373;49.342;8.146;2022-07-18T12:29:05;32.90;30.40
780;DHT22;373;49.342;8.146;2022-07-18T12:31:36;33.20;31.60
780;DHT22;373;49.342;8.146;2022-07-18T12:34:08;33.00;29.10
780;DHT22;373;49.342;8.146;2022-07-18T12:36:50;33.20;30.10
780;DHT22;373;49.342;8.146;2022-07-18T12:39:30;33.40;30.90
780;DHT22;373;49.342;8.146;2022-07-18T12:41:58;34.00;29.80
780;DHT22;373;49.342;8.146;2022-07-18T12:47:14;33.00;29.00
780;DHT22;373;49.342;8.146;2022-07-18T12:49:41;33.20;29.30
780;DHT22;373;49.342;8.146;2022-07-18T12:52:09;33.20;30.00
780;DHT22;373;49.342;8.146;2022-07-18T12:54:37;33.40;30.60
780;DHT22;373;49.342;8.146;2022-07-18T12:57:04;33.90;30.10
780;DHT22;373;49.342;8.146;2022-07-18T12:59:31;34.00;29.40
780;DHT22;373;49.342;8.146;2022-07-18T13:01:58;34.10;30.00
780;DHT22;373;49.342;8.146;2022-07-18T13:04:25;34.00;30.00
780;DHT22;373;49.342;8.146;2022-07-18T13:06:53;33.60;30.10
780;DHT22;373;49.342;8.146;2022-07-18T13:09:20;33.30;30.50
780;DHT22;373;49.342;8.146;2022-07-18T13:11:49;33.20;30.40
780;DHT22;373;49.342;8.146;2022-07-18T13:14:16;32.80;30.20
780;DHT22;373;49.342;8.146;2022-07-18T13:16:44;33.00;30.90
780;DHT22;373;49.342;8.146;2022-07-18T13:19:13;33.30;30.50
780;DHT22;373;49.342;8.146;2022-07-18T13:21:40;33.50;30.40
780;DHT22;373;49.342;8.146;2022-07-18T13:24:08;33.60;30.60
780;DHT22;373;49.342;8.146;2022-07-18T13:26:35;33.40;30.40
780;DHT22;373;49.342;8.146;2022-07-18T13:29:04;33.60;30.20
780;DHT22;373;49.342;8.146;2022-07-18T13:31:32;33.30;30.50
780;DHT22;373;49.342;8.146;2022-07-18T13:33:59;33.90;31.70
780;DHT22;373;49.342;8.146;2022-07-18T13:36:26;34.70;31.30
780;DHT22;373;49.342;8.146;2022-07-18T13:38:53;34.90;29.80
780;DHT22;373;49.342;8.146;2022-07-18T13:41:21;35.20;30.40
780;DHT22;373;49.342;8.146;2022-07-18T13:43:48;35.30;29.90
780;DHT22;373;49.342;8.146;2022-07-18T13:46:17;34.90;29.50
780;DHT22;373;49.342;8.146;2022-07-18T13:48:44;34.60;30.20
780;DHT22;373;49.342;8.146;2022-07-18T13:51:12;34.60;30.30
780;DHT22;373;49.342;8.146;2022-07-18T13:53:39;34.50;30.00
780;DHT22;373;49.342;8.146;2022-07-18T13:56:07;35.00;30.40
780;DHT22;373;49.342;8.146;2022-07-18T13:58:34;34.90;29.70
780;DHT22;373;49.342;8.146;2022-07-18T14:01:01;34.60;30.50
780;DHT22;373;49.342;8.146;2022-07-18T14:03:29;34.00;30.00
780;DHT22;373;49.342;8.146;2022-07-18T14:05:56;33.90;30.00
780;DHT22;373;49.342;8.146;2022-07-18T14:08:23;34.00;30.60
780;DHT22;373;49.342;8.146;2022-07-18T14:10:51;34.20;30.20
780;DHT22;373;49.342;8.146;2022-07-18T14:13:18;34.00;30.20
780;DHT22;373;49.342;8.146;2022-07-18T14:15:45;34.10;30.00
780;DHT22;373;49.342;8.146;2022-07-18T14:18:12;33.90;29.90
780;DHT22;373;49.342;8.146;2022-07-18T14:20:40;34.20;30.40
780;DHT22;373;49.342;8.146;2022-07-18T14:23:08;34.20;30.10
780;DHT22;373;49.342;8.146;2022-07-18T14:25:35;34.30;30.20
780;DHT22;373;49.342;8.146;2022-07-18T14:28:02;34.50;30.40
780;DHT22;373;49.342;8.146;2022-07-18T14:30:30;34.30;29.90
780;DHT22;373;49.342;8.146;2022-07-18T14:32:57;34.70;30.00
780;DHT22;373;49.342;8.146;2022-07-18T14:35:24;34.60;30.10
780;DHT22;373;49.342;8.146;2022-07-18T14:37:52;34.60;30.90
780;DHT22;373;49.342;8.146;2022-07-18T14:40:20;34.40;30.80
780;DHT22;373;49.342;8.146;2022-07-18T14:42:47;34.30;30.40
780;DHT22;373;49.342;8.146;2022-07-18T14:45:14;34.30;30.60
780;DHT22;373;49.342;8.146;2022-07-18T14:47:41;34.10;30.80
780;DHT22;373;49.342;8.146;2022-07-18T14:50:09;33.90;30.60
780;DHT22;373;49.342;8.146;2022-07-18T14:52:36;33.80;30.80
780;DHT22;373;49.342;8.146;2022-07-18T14:55:07;33.60;30.70
780;DHT22;373;49.342;8.146;2022-07-18T14:57:34;33.70;30.20
780;DHT22;373;49.342;8.146;2022-07-18T15:00:04;33.80;30.00
780;DHT22;373;49.342;8.146;2022-07-18T15:02:31;34.30;30.00
780;DHT22;373;49.342;8.146;2022-07-18T15:05:00;34.70;30.30
780;DHT22;373;49.342;8.146;2022-07-18T15:07:27;35.00;30.00
780;DHT22;373;49.342;8.146;2022-07-18T15:09:54;35.00;31.00
780;DHT22;373;49.342;8.146;2022-07-18T15:12:22;34.80;30.50
780;DHT22;373;49.342;8.146;2022-07-18T15:14:50;34.50;30.10
780;DHT22;373;49.342;8.146;2022-07-18T15:17:20;34.30;30.30
780;DHT22;373;49.342;8.146;2022-07-18T15:19:48;34.40;30.30
780;DHT22;373;49.342;8.146;2022-07-18T15:22:16;34.80;30.20
780;DHT22;373;49.342;8.146;2022-07-18T15:24:43;34.80;30.00
780;DHT22;373;49.342;8.146;2022-07-18T15:27:10;34.80;30.50
780;DHT22;373;49.342;8.146;2022-07-18T15:29:39;34.70;30.60
780;DHT22;373;49.342;8.146;2022-07-18T15:32:06;34.30;30.40
780;DHT22;373;49.342;8.146;2022-07-18T15:34:35;33.90;30.60
780;DHT22;373;49.342;8.146;2022-07-18T15:37:02;34.30;30.40
780;DHT22;373;49.342;8.146;2022-07-18T15:39:29;34.60;31.20
780;DHT22;373;49.342;8.146;2022-07-18T15:41:57;34.60;30.50
780;DHT22;373;49.342;8.146;2022-07-18T15:44:24;34.40;30.40
780;DHT22;373;49.342;8.146;2022-07-18T15:46:53;34.40;31.00
780;DHT22;373;49.342;8.146;2022-07-18T15:49:20;34.20;31.00
780;DHT22;373;49.342;8.146;2022-07-18T15:51:47;34.10;31.20
780;DHT22;373;49.342;8.146;2022-07-18T15:54:15;34.20;31.30
780;DHT22;373;49.342;8.146;2022-07-18T15:56:43;34.20;31.80
780;DHT22;373;49.342;8.146;2022-07-18T15:59:10;34.40;31.60
780;DHT22;373;49.342;8.146;2022-07-18T16:01:37;34.40;32.00
780;DHT22;373;49.342;8.146;2022-07-18T16:04:05;34.40;32.10
780;DHT22;373;49.342;8.146;2022-07-18T16:06:33;34.20;31.80
780;DHT22;373;49.342;8.146;2022-07-18T16:09:00;34.20;31.90
780;DHT22;373;49.342;8.146;2022-07-18T16:11:27;33.90;31.60
780;DHT22;373;49.342;8.146;2022-07-18T16:13:54;34.10;31.80
780;DHT22;373;49.342;8.146;2022-07-18T16:16:22;34.10;32.40
780;DHT22;373;49.342;8.146;2022-07-18T16:18:49;34.10;32.00
780;DHT22;373;49.342;8.146;2022-07-18T16:21:17;34.20;31.90
780;DHT22;373;49.342;8.146;2022-07-18T16:23:45;34.20;31.80
780;DHT22;373;49.342;8.146;2022-07-18T16:26:12;34.00;31.60
780;DHT22;373;49.342;8.146;2022-07-18T16:28:39;34.20;32.20
780;DHT22;373;49.342;8.146;2022-07-18T16:31:06;34.40;31.80
780;DHT22;373;49.342;8.146;2022-07-18T16:33:34;34.30;31.50
780;DHT22;373;49.342;8.146;2022-07-18T16:36:01;34.60;31.70
780;DHT22;373;49.342;8.146;2022-07-18T16:38:30;34.60;30.90
780;DHT22;373;49.342;8.146;2022-07-18T16:40:57;34.60;30.90
780;DHT22;373;49.342;8.146;2022-07-18T16:43:25;34.80;31.00
780;DHT22;373;49.342;8.146;2022-07-18T16:45:52;34.80;31.00
780;DHT22;373;49.342;8.146;2022-07-18T16:48:20;34.80;31.60
780;DHT22;373;49.342;8.146;2022-07-18T16:50:48;34.80;31.50
780;DHT22;373;49.342;8.146;2022-07-18T16:53:16;34.60;32.00
780;DHT22;373;49.342;8.146;2022-07-18T16:55:44;34.70;32.10
780;DHT22;373;49.342;8.146;2022-07-18T16:58:12;34.20;31.30